sensor_id;sensor_type;location;lat;lon;timestamp;P1;durP1;ratioP1;P2;durP2;ratioP2
26622;SDS011;14254;50.968;5.366;2022-07-06T00:02:24;8.43;;;3.90;;
26622;SDS011;14254;50.968;5.366;2022-07-06T00:04:50;4.32;;;3.33;;
26622;SDS011;14254;50.968;5.366;2022-07-06T00:07:16;9.13;;;4.07;;
26622;SDS011;14254;50.968;5.366;2022-07-06T00:09:42;6.57;;;3.90;;
26622;SDS011;14254;50.968;5.366;2022-07-06T00:12:08;10.13;;;3.90;;
26622;SDS011;14254;50.968;5.366;2022-07-06T00:14:34;12.18;;;3.88;;
26622;SDS011;14254;50.968;5.366;2022-07-06T00:17:00;6.55;;;4.00;;
26622;SDS011;14254;50.968;5.366;2022-07-06T00:19:25;7.65;;;3.95;;
26622;SDS011;14254;50.968;5.366;2022-07-06T00:21:51;5.60;;;4.15;;
26622;SDS011;14254;50.968;5.366;2022-07-06T00:24:16;6.25;;;4.15;;
26622;SDS011;14254;50.968;5.366;2022-07-06T00:26:45;6.65;;;4.50;;
26622;SDS011;14254;50.968;5.366;2022-07-06T00:29:11;10.05;;;4.97;;
26622;SDS011;14254;50.968;5.366;2022-07-06T00:31:37;6.53;;;4.30;;
26622;SDS011;14254;50.968;5.366;2022-07-06T00:34:02;7.15;;;4.38;;
26622;SDS011;14254;50.968;5.366;2022-07-06T00:36:28;5.28;;;4.22;;
26622;SDS011;14254;50.968;5.366;2022-07-06T00:38:54;6.70;;;4.90;;
26622;SDS011;14254;50.968;5.366;2022-07-06T00:41:19;11.38;;;4.57;;
26622;SDS011;14254;50.968;5.366;2022-07-06T00:46:22;6.40;;;4.43;;
26622;SDS011;14254;50.968;5.366;2022-07-06T00:48:58;5.82;;;4.47;;
26622;SDS011;14254;50.968;5.366;2022-07-06T00:51:25;5.93;;;4.30;;
26622;SDS011;14254;50.968;5.366;2022-07-06T00:53:55;9.50;;;4.80;;
26622;SDS011;14254;50.968;5.366;2022-07-06T00:56:25;7.32;;;4.75;;
26622;SDS011;14254;50.968;5.366;2022-07-06T00:58:53;9.27;;;4.78;;
26622;SDS011;14254;50.968;5.366;2022-07-06T01:01:19;5.43;;;3.58;;
26622;SDS011;14254;50.968;5.366;2022-07-06T01:03:45;5.20;;;3.47;;
26622;SDS011;14254;50.968;5.366;2022-07-06T01:06:10;7.68;;;4.13;;
26622;SDS011;14254;50.968;5.366;2022-07-06T01:08:37;5.80;;;4.20;;
26622;SDS011;14254;50.968;5.366;2022-07-06T01:11:03;8.02;;;4.65;;
26622;SDS011;14254;50.968;5.366;2022-07-06T01:13:29;9.15;;;5.13;;
26622;SDS011;14254;50.968;5.366;2022-07-06T01:15:57;11.60;;;6.10;;
26622;SDS011;14254;50.968;5.366;2022-07-06T01:18:23;8.60;;;5.72;;
26622;SDS011;14254;50.968;5.366;2022-07-06T01:20:49;10.95;;;5.47;;
26622;SDS011;14254;50.968;5.366;2022-07-06T01:23:15;7.68;;;5.78;;
26622;SDS011;14254;50.968;5.366;2022-07-06T01:25:41;9.23;;;5.25;;
26622;SDS011;14254;50.968;5.366;2022-07-06T01:28:07;6.90;;;5.10;;
26622;SDS011;14254;50.968;5.366;2022-07-06T01:30:32;9.18;;;5.07;;
26622;SDS011;14254;50.968;5.366;2022-07-06T01:32:58;7.82;;;5.35;;
26622;SDS011;14254;50.968;5.366;2022-07-06T01:35:24;5.60;;;5.03;;
26622;SDS011;14254;50.968;5.366;2022-07-06T01:37:51;6.63;;;5.15;;
26622;SDS011;14254;50.968;5.366;2022-07-06T01:40:17;7.95;;;5.20;;
26622;SDS011;14254;50.968;5.366;2022-07-06T01:42:42;6.90;;;4.97;;
26622;SDS011;14254;50.968;5.366;2022-07-06T01:45:08;9.48;;;5.57;;
26622;SDS011;14254;50.968;5.366;2022-07-06T01:47:34;12.15;;;5.55;;
26622;SDS011;14254;50.968;5.366;2022-07-06T01:50:01;5.35;;;4.47;;
26622;SDS011;14254;50.968;5.366;2022-07-06T01:52:30;5.05;;;4.32;;
26622;SDS011;14254;50.968;5.366;2022-07-06T01:54:56;7.68;;;5.10;;
26622;SDS011;14254;50.968;5.366;2022-07-06T01:57:22;7.32;;;4.40;;
26622;SDS011;14254;50.968;5.366;2022-07-06T01:59:48;6.35;;;4.30;;
26622;SDS011;14254;50.968;5.366;2022-07-06T02:02:13;4.78;;;4.20;;
26622;SDS011;14254;50.968;5.366;2022-07-06T02:04:40;8.38;;;4.07;;
26622;SDS011;14254;50.968;5.366;2022-07-06T02:07:05;4.93;;;4.43;;
26622;SDS011;14254;50.968;5.366;2022-07-06T02:09:31;7.03;;;4.53;;
26622;SDS011;14254;50.968;5.366;2022-07-06T02:11:57;6.85;;;4.35;;
26622;SDS011;14254;50.968;5.366;2022-07-06T02:14:22;6.40;;;4.30;;
26622;SDS011;14254;50.968;5.366;2022-07-06T02:16:48;5.68;;;3.85;;
26622;SDS011;14254;50.968;5.366;2022-07-06T02:19:14;7.15;;;4.00;;
26622;SDS011;14254;50.968;5.366;2022-07-06T02:21:40;7.38;;;4.38;;
26622;SDS011;14254;50.968;5.366;2022-07-06T02:24:05;6.47;;;5.00;;
26622;SDS011;14254;50.968;5.366;2022-07-06T02:26:31;5.50;;;4.63;;
26622;SDS011;14254;50.968;5.366;2022-07-06T02:28:57;6.65;;;4.85;;
26622;SDS011;14254;50.968;5.366;2022-07-06T02:31:23;7.75;;;5.20;;
26622;SDS011;14254;50.968;5.366;2022-07-06T02:33:48;6.53;;;5.60;;
26622;SDS011;14254;50.968;5.366;2022-07-06T02:36:14;5.32;;;4.82;;
26622;SDS011;14254;50.968;5.366;2022-07-06T02:38:40;7.72;;;4.38;;
26622;SDS011;14254;50.968;5.366;2022-07-06T02:41:05;11.60;;;5.20;;
26622;SDS011;14254;50.968;5.366;2022-07-06T02:43:31;10.07;;;5.63;;
26622;SDS011;14254;50.968;5.366;2022-07-06T02:45:57;4.47;;;3.25;;
26622;SDS011;14254;50.968;5.366;2022-07-06T02:48:22;4.40;;;4.03;;
26622;SDS011;14254;50.968;5.366;2022-07-06T02:50:48;5.20;;;4.60;;
26622;SDS011;14254;50.968;5.366;2022-07-06T02:53:14;6.32;;;4.90;;
26622;SDS011;14254;50.968;5.366;2022-07-06T02:55:40;6.82;;;5.00;;
26622;SDS011;14254;50.968;5.366;2022-07-06T02:58:05;8.20;;;5.13;;
26622;SDS011;14254;50.968;5.366;2022-07-06T03:00:31;7.30;;;4.88;;
26622;SDS011;14254;50.968;5.366;2022-07-06T03:02:57;8.60;;;4.03;;
26622;SDS011;14254;50.968;5.366;2022-07-06T03:05:22;6.88;;;3.38;;
26622;SDS011;14254;50.968;5.366;2022-07-06T03:07:48;7.97;;;4.13;;
26622;SDS011;14254;50.968;5.366;2022-07-06T03:10:14;5.10;;;3.88;;
26622;SDS011;14254;50.968;5.366;2022-07-06T03:12:39;7.13;;;4.20;;
26622;SDS011;14254;50.968;5.366;2022-07-06T03:15:05;5.70;;;4.10;;
26622;SDS011;14254;50.968;5.366;2022-07-06T03:17:34;4.85;;;4.32;;
26622;SDS011;14254;50.968;5.366;2022-07-06T03:20:00;4.30;;;3.80;;
26622;SDS011;14254;50.968;5.366;2022-07-06T03:22:26;7.97;;;4.88;;
26622;SDS011;14254;50.968;5.366;2022-07-06T03:24:51;4.57;;;4.05;;
26622;SDS011;14254;50.968;5.366;2022-07-06T03:27:17;7.32;;;4.40;;
26622;SDS011;14254;50.968;5.366;2022-07-06T03:29:43;4.88;;;4.20;;
26622;SDS011;14254;50.968;5.366;2022-07-06T03:32:08;6.07;;;4.45;;
26622;SDS011;14254;50.968;5.366;2022-07-06T03:34:34;5.95;;;4.60;;
26622;SDS011;14254;50.968;5.366;2022-07-06T03:37:00;5.82;;;4.70;;
26622;SDS011;14254;50.968;5.366;2022-07-06T03:39:25;6.95;;;5.32;;
26622;SDS011;14254;50.968;5.366;2022-07-06T03:41:51;7.97;;;4.75;;
26622;SDS011;14254;50.968;5.366;2022-07-06T03:44:16;6.50;;;5.28;;
26622;SDS011;14254;50.968;5.366;2022-07-06T03:46:42;6.50;;;5.28;;
26622;SDS011;14254;50.968;5.366;2022-07-06T03:49:08;7.80;;;5.00;;
26622;SDS011;14254;50.968;5.366;2022-07-06T03:51:33;6.57;;;4.70;;
26622;SDS011;14254;50.968;5.366;2022-07-06T03:53:59;7.55;;;5.05;;
26622;SDS011;14254;50.968;5.366;2022-07-06T03:56:25;5.60;;;4.45;;
26622;SDS011;14254;50.968;5.366;2022-07-06T03:58:56;5.00;;;4.13;;
26622;SDS011;14254;50.968;5.366;2022-07-06T04:01:25;6.43;;;4.90;;
26622;SDS011;14254;50.968;5.366;2022-07-06T04:03:51;7.68;;;5.15;;
26622;SDS011;14254;50.968;5.366;2022-07-06T04:06:17;9.85;;;5.63;;
26622;SDS011;14254;50.968;5.366;2022-07-06T04:08:43;8.82;;;5.68;;
26622;SDS011;14254;50.968;5.366;2022-07-06T04:11:08;11.43;;;5.43;;
26622;SDS011;14254;50.968;5.366;2022-07-06T04:13:34;9.55;;;5.65;;
26622;SDS011;14254;50.968;5.366;2022-07-06T04:16:00;6.63;;;5.57;;
26622;SDS011;14254;50.968;5.366;2022-07-06T04:18:26;8.07;;;5.80;;
26622;SDS011;14254;50.968;5.366;2022-07-06T04:20:51;8.20;;;6.53;;
26622;SDS011;14254;50.968;5.366;2022-07-06T04:23:17;7.55;;;6.10;;
26622;SDS011;14254;50.968;5.366;2022-07-06T04:25:43;7.53;;;6.30;;
26622;SDS011;14254;50.968;5.366;2022-07-06T04:28:08;7.22;;;6.20;;
26622;SDS011;14254;50.968;5.366;2022-07-06T04:30:34;5.95;;;5.28;;
26622;SDS011;14254;50.968;5.366;2022-07-06T04:33:00;7.82;;;5.30;;
26622;SDS011;14254;50.968;5.366;2022-07-06T04:35:26;8.27;;;6.05;;
26622;SDS011;14254;50.968;5.366;2022-07-06T04:37:52;7.05;;;5.45;;
26622;SDS011;14254;50.968;5.366;2022-07-06T04:40:17;6.85;;;5.88;;
26622;SDS011;14254;50.968;5.366;2022-07-06T04:42:43;8.75;;;6.00;;
26622;SDS011;14254;50.968;5.366;2022-07-06T04:45:09;6.75;;;5.63;;
26622;SDS011;14254;50.968;5.366;2022-07-06T04:47:35;6.55;;;5.45;;
26622;SDS011;14254;50.968;5.366;2022-07-06T04:50:01;9.73;;;5.53;;
26622;SDS011;14254;50.968;5.366;2022-07-06T04:52:28;7.90;;;6.25;;
26622;SDS011;14254;50.968;5.366;2022-07-06T04:54:54;8.13;;;5.63;;
26622;SDS011;14254;50.968;5.366;2022-07-06T04:57:20;9.15;;;5.65;;
26622;SDS011;14254;50.968;5.366;2022-07-06T04:59:46;12.85;;;6.10;;
26622;SDS011;14254;50.968;5.366;2022-07-06T05:02:12;8.85;;;6.43;;
26622;SDS011;14254;50.968;5.366;2022-07-06T05:04:37;8.38;;;6.80;;
26622;SDS011;14254;50.968;5.366;2022-07-06T05:07:03;9.50;;;7.15;;
26622;SDS011;14254;50.968;5.366;2022-07-06T05:09:29;9.35;;;7.60;;
26622;SDS011;14254;50.968;5.366;2022-07-06T05:11:55;13.00;;;7.47;;
26622;SDS011;14254;50.968;5.366;2022-07-06T05:14:20;11.70;;;7.47;;
26622;SDS011;14254;50.968;5.366;2022-07-06T05:16:46;13.18;;;7.70;;
26622;SDS011;14254;50.968;5.366;2022-07-06T05:19:12;11.18;;;7.50;;
26622;SDS011;14254;50.968;5.366;2022-07-06T05:21:37;14.65;;;8.05;;
26622;SDS011;14254;50.968;5.366;2022-07-06T05:24:03;12.43;;;7.50;;
26622;SDS011;14254;50.968;5.366;2022-07-06T05:26:29;14.52;;;7.90;;
26622;SDS011;14254;50.968;5.366;2022-07-06T05:28:55;10.35;;;6.75;;
26622;SDS011;14254;50.968;5.366;2022-07-06T05:31:21;13.63;;;7.85;;
26622;SDS011;14254;50.968;5.366;2022-07-06T05:33:47;16.15;;;6.95;;
26622;SDS011;14254;50.968;5.366;2022-07-06T05:36:12;14.68;;;5.57;;
26622;SDS011;14254;50.968;5.366;2022-07-06T05:38:38;11.45;;;5.88;;
26622;SDS011;14254;50.968;5.366;2022-07-06T05:41:04;10.93;;;5.15;;
26622;SDS011;14254;50.968;5.366;2022-07-06T05:43:29;11.20;;;5.15;;
26622;SDS011;14254;50.968;5.366;2022-07-06T05:45:55;11.32;;;5.43;;
26622;SDS011;14254;50.968;5.366;2022-07-06T05:48:21;8.82;;;4.20;;
26622;SDS011;14254;50.968;5.366;2022-07-06T05:51:05;11.23;;;4.32;;
26622;SDS011;14254;50.968;5.366;2022-07-06T05:53:31;11.15;;;3.45;;
26622;SDS011;14254;50.968;5.366;2022-07-06T05:55:56;8.00;;;4.38;;
26622;SDS011;14254;50.968;5.366;2022-07-06T05:58:22;12.90;;;3.75;;
26622;SDS011;14254;50.968;5.366;2022-07-06T06:00:50;10.45;;;2.90;;
26622;SDS011;14254;50.968;5.366;2022-07-06T06:03:16;7.10;;;3.03;;
26622;SDS011;14254;50.968;5.366;2022-07-06T06:05:42;6.68;;;3.13;;
26622;SDS011;14254;50.968;5.366;2022-07-06T06:08:07;8.82;;;3.20;;
26622;SDS011;14254;50.968;5.366;2022-07-06T06:10:33;8.70;;;2.47;;
26622;SDS011;14254;50.968;5.366;2022-07-06T06:12:59;4.18;;;2.22;;
26622;SDS011;14254;50.968;5.366;2022-07-06T06:15:24;8.20;;;2.55;;
26622;SDS011;14254;50.968;5.366;2022-07-06T06:17:50;8.02;;;2.28;;
26622;SDS011;14254;50.968;5.366;2022-07-06T06:20:16;3.85;;;1.80;;
26622;SDS011;14254;50.968;5.366;2022-07-06T06:22:54;6.80;;;2.83;;
26622;SDS011;14254;50.968;5.366;2022-07-06T06:25:28;6.97;;;2.05;;
26622;SDS011;14254;50.968;5.366;2022-07-06T06:27:59;6.13;;;2.65;;
26622;SDS011;14254;50.968;5.366;2022-07-06T06:30:24;8.40;;;2.28;;
26622;SDS011;14254;50.968;5.366;2022-07-06T06:32:50;4.75;;;2.40;;
26622;SDS011;14254;50.968;5.366;2022-07-06T06:35:16;8.77;;;2.55;;
26622;SDS011;14254;50.968;5.366;2022-07-06T06:37:42;6.68;;;2.58;;
26622;SDS011;14254;50.968;5.366;2022-07-06T06:40:08;5.88;;;2.95;;
26622;SDS011;14254;50.968;5.366;2022-07-06T06:42:37;8.23;;;2.05;;
26622;SDS011;14254;50.968;5.366;2022-07-06T06:45:04;8.25;;;2.45;;
26622;SDS011;14254;50.968;5.366;2022-07-06T06:47:30;5.05;;;1.75;;
26622;SDS011;14254;50.968;5.366;2022-07-06T06:49:56;5.40;;;1.65;;
26622;SDS011;14254;50.968;5.366;2022-07-06T06:52:21;6.72;;;2.50;;
26622;SDS011;14254;50.968;5.366;2022-07-06T06:54:48;3.35;;;1.50;;
26622;SDS011;14254;50.968;5.366;2022-07-06T06:57:13;3.50;;;1.50;;
26622;SDS011;14254;50.968;5.366;2022-07-06T06:59:39;7.50;;;3.10;;
26622;SDS011;14254;50.968;5.366;2022-07-06T07:02:05;6.00;;;2.22;;
26622;SDS011;14254;50.968;5.366;2022-07-06T07:04:31;3.65;;;1.70;;
26622;SDS011;14254;50.968;5.366;2022-07-06T07:06:57;9.00;;;1.60;;
26622;SDS011;14254;50.968;5.366;2022-07-06T07:09:22;6.78;;;2.08;;
26622;SDS011;14254;50.968;5.366;2022-07-06T07:11:48;9.15;;;2.40;;
26622;SDS011;14254;50.968;5.366;2022-07-06T07:14:14;4.60;;;1.70;;
26622;SDS011;14254;50.968;5.366;2022-07-06T07:16:39;3.72;;;1.40;;
26622;SDS011;14254;50.968;5.366;2022-07-06T07:19:05;7.43;;;2.10;;
26622;SDS011;14254;50.968;5.366;2022-07-06T07:21:31;6.47;;;1.92;;
26622;SDS011;14254;50.968;5.366;2022-07-06T07:23:57;9.63;;;1.90;;
26622;SDS011;14254;50.968;5.366;2022-07-06T07:26:22;4.82;;;1.58;;
26622;SDS011;14254;50.968;5.366;2022-07-06T07:28:48;10.57;;;1.70;;
26622;SDS011;14254;50.968;5.366;2022-07-06T07:31:14;2.65;;;1.30;;
26622;SDS011;14254;50.968;5.366;2022-07-06T07:33:39;7.30;;;2.00;;
26622;SDS011;14254;50.968;5.366;2022-07-06T07:36:05;2.60;;;1.42;;
26622;SDS011;14254;50.968;5.366;2022-07-06T07:38:31;1.90;;;1.45;;
26622;SDS011;14254;50.968;5.366;2022-07-06T07:40:57;4.28;;;1.75;;
26622;SDS011;14254;50.968;5.366;2022-07-06T07:43:22;4.00;;;1.25;;
26622;SDS011;14254;50.968;5.366;2022-07-06T07:45:48;4.03;;;1.67;;
26622;SDS011;14254;50.968;5.366;2022-07-06T07:48:14;3.60;;;1.60;;
26622;SDS011;14254;50.968;5.366;2022-07-06T07:50:40;6.95;;;1.83;;
26622;SDS011;14254;50.968;5.366;2022-07-06T07:53:06;9.15;;;1.50;;
26622;SDS011;14254;50.968;5.366;2022-07-06T07:55:32;9.40;;;2.63;;
26622;SDS011;14254;50.968;5.366;2022-07-06T07:57:58;7.07;;;1.10;;
26622;SDS011;14254;50.968;5.366;2022-07-06T08:00:24;5.40;;;1.20;;
26622;SDS011;14254;50.968;5.366;2022-07-06T08:02:50;4.93;;;1.20;;
26622;SDS011;14254;50.968;5.366;2022-07-06T08:05:16;8.43;;;1.42;;
26622;SDS011;14254;50.968;5.366;2022-07-06T08:07:42;8.00;;;1.23;;
26622;SDS011;14254;50.968;5.366;2022-07-06T08:10:08;4.90;;;1.42;;
26622;SDS011;14254;50.968;5.366;2022-07-06T08:12:35;3.88;;;1.38;;
26622;SDS011;14254;50.968;5.366;2022-07-06T08:15:01;3.00;;;1.55;;
26622;SDS011;14254;50.968;5.366;2022-07-06T08:17:27;5.30;;;1.40;;
26622;SDS011;14254;50.968;5.366;2022-07-06T08:19:53;8.38;;;1.55;;
26622;SDS011;14254;50.968;5.366;2022-07-06T08:22:18;3.20;;;1.23;;
26622;SDS011;14254;50.968;5.366;2022-07-06T08:24:44;1.38;;;1.27;;
26622;SDS011;14254;50.968;5.366;2022-07-06T08:27:10;4.10;;;1.23;;
26622;SDS011;14254;50.968;5.366;2022-07-06T08:29:35;5.38;;;1.58;;
26622;SDS011;14254;50.968;5.366;2022-07-06T08:32:01;6.20;;;1.58;;
26622;SDS011;14254;50.968;5.366;2022-07-06T08:34:27;8.63;;;2.22;;
26622;SDS011;14254;50.968;5.366;2022-07-06T08:36:52;3.65;;;1.67;;
26622;SDS011;14254;50.968;5.366;2022-07-06T08:39:18;3.25;;;1.30;;
26622;SDS011;14254;50.968;5.366;2022-07-06T08:41:44;5.45;;;1.52;;
26622;SDS011;14254;50.968;5.366;2022-07-06T08:44:12;3.88;;;1.20;;
26622;SDS011;14254;50.968;5.366;2022-07-06T08:46:39;3.05;;;1.20;;
26622;SDS011;14254;50.968;5.366;2022-07-06T08:49:09;8.05;;;1.55;;
26622;SDS011;14254;50.968;5.366;2022-07-06T08:51:38;3.95;;;1.10;;
26622;SDS011;14254;50.968;5.366;2022-07-06T08:54:05;3.63;;;1.52;;
26622;SDS011;14254;50.968;5.366;2022-07-06T08:56:32;4.63;;;1.10;;
26622;SDS011;14254;50.968;5.366;2022-07-06T08:58:59;3.88;;;1.55;;
26622;SDS011;14254;50.968;5.366;2022-07-06T09:01:25;5.60;;;1.40;;
26622;SDS011;14254;50.968;5.366;2022-07-06T09:03:51;3.00;;;1.33;;
26622;SDS011;14254;50.968;5.366;2022-07-06T09:06:21;3.17;;;1.13;;
26622;SDS011;14254;50.968;5.366;2022-07-06T09:08:49;4.45;;;1.27;;
26622;SDS011;14254;50.968;5.366;2022-07-06T09:11:19;2.97;;;1.00;;
26622;SDS011;14254;50.968;5.366;2022-07-06T09:13:49;5.22;;;1.17;;
26622;SDS011;14254;50.968;5.366;2022-07-06T09:16:16;3.83;;;1.00;;
26622;SDS011;14254;50.968;5.366;2022-07-06T09:18:45;7.03;;;1.30;;
26622;SDS011;14254;50.968;5.366;2022-07-06T09:21:19;3.08;;;1.50;;
26622;SDS011;14254;50.968;5.366;2022-07-06T09:23:57;3.83;;;1.27;;
26622;SDS011;14254;50.968;5.366;2022-07-06T09:26:25;6.65;;;1.58;;
26622;SDS011;14254;50.968;5.366;2022-07-06T09:28:51;5.82;;;1.10;;
26622;SDS011;14254;50.968;5.366;2022-07-06T09:31:19;2.22;;;1.25;;
26622;SDS011;14254;50.968;5.366;2022-07-06T09:33:58;2.72;;;1.08;;
26622;SDS011;14254;50.968;5.366;2022-07-06T09:36:46;4.78;;;1.30;;
26622;SDS011;14254;50.968;5.366;2022-07-06T09:39:25;5.15;;;1.10;;
26622;SDS011;14254;50.968;5.366;2022-07-06T09:41:54;3.17;;;1.10;;
26622;SDS011;14254;50.968;5.366;2022-07-06T09:44:31;4.13;;;1.43;;
26622;SDS011;14254;50.968;5.366;2022-07-06T09:47:03;4.10;;;1.13;;
26622;SDS011;14254;50.968;5.366;2022-07-06T09:49:30;3.88;;;1.13;;
26622;SDS011;14254;50.968;5.366;2022-07-06T09:52:06;1.67;;;0.85;;
26622;SDS011;14254;50.968;5.366;2022-07-06T09:54:33;4.50;;;1.10;;
26622;SDS011;14254;50.968;5.366;2022-07-06T09:57:00;3.08;;;1.02;;
26622;SDS011;14254;50.968;5.366;2022-07-06T09:59:28;1.92;;;0.90;;
26622;SDS011;14254;50.968;5.366;2022-07-06T10:01:56;4.32;;;0.80;;
26622;SDS011;14254;50.968;5.366;2022-07-06T10:04:24;3.65;;;1.02;;
26622;SDS011;14254;50.968;5.366;2022-07-06T10:06:50;4.78;;;0.95;;
26622;SDS011;14254;50.968;5.366;2022-07-06T10:09:18;6.65;;;1.30;;
26622;SDS011;14254;50.968;5.366;2022-07-06T10:11:47;3.75;;;1.30;;
26622;SDS011;14254;50.968;5.366;2022-07-06T10:14:21;2.30;;;1.40;;
26622;SDS011;14254;50.968;5.366;2022-07-06T10:16:51;2.10;;;1.20;;
26622;SDS011;14254;50.968;5.366;2022-07-06T10:19:19;4.90;;;1.58;;
26622;SDS011;14254;50.968;5.366;2022-07-06T10:21:46;3.47;;;1.48;;
26622;SDS011;14254;50.968;5.366;2022-07-06T10:24:12;7.25;;;1.10;;
26622;SDS011;14254;50.968;5.366;2022-07-06T10:26:39;5.45;;;1.45;;
26622;SDS011;14254;50.968;5.366;2022-07-06T10:29:06;4.63;;;1.60;;
26622;SDS011;14254;50.968;5.366;2022-07-06T10:31:32;6.03;;;1.98;;
26622;SDS011;14254;50.968;5.366;2022-07-06T10:34:01;3.72;;;1.33;;
26622;SDS011;14254;50.968;5.366;2022-07-06T10:36:30;3.60;;;1.25;;
26622;SDS011;14254;50.968;5.366;2022-07-06T10:38:56;4.18;;;1.50;;
26622;SDS011;14254;50.968;5.366;2022-07-06T10:41:31;4.35;;;1.40;;
26622;SDS011;14254;50.968;5.366;2022-07-06T10:44:09;3.65;;;1.67;;
26622;SDS011;14254;50.968;5.366;2022-07-06T10:46:54;6.90;;;1.33;;
26622;SDS011;14254;50.968;5.366;2022-07-06T10:49:21;3.97;;;1.33;;
26622;SDS011;14254;50.968;5.366;2022-07-06T10:51:48;4.68;;;1.80;;
26622;SDS011;14254;50.968;5.366;2022-07-06T10:54:14;5.72;;;1.65;;
26622;SDS011;14254;50.968;5.366;2022-07-06T10:56:45;4.45;;;1.73;;
26622;SDS011;14254;50.968;5.366;2022-07-06T10:59:14;3.63;;;1.50;;
26622;SDS011;14254;50.968;5.366;2022-07-06T11:04:41;5.15;;;1.50;;
26622;SDS011;14254;50.968;5.366;2022-07-06T11:07:15;6.07;;;1.73;;
26622;SDS011;14254;50.968;5.366;2022-07-06T11:09:55;3.33;;;1.60;;
26622;SDS011;14254;50.968;5.366;2022-07-06T11:12:22;4.03;;;1.67;;
26622;SDS011;14254;50.968;5.366;2022-07-06T11:14:48;6.13;;;1.67;;
26622;SDS011;14254;50.968;5.366;2022-07-06T11:17:16;6.15;;;2.03;;
26622;SDS011;14254;50.968;5.366;2022-07-06T11:19:49;5.10;;;1.77;;
26622;SDS011;14254;50.968;5.366;2022-07-06T11:22:20;6.63;;;1.90;;
26622;SDS011;14254;50.968;5.366;2022-07-06T11:24:49;6.53;;;2.33;;
26622;SDS011;14254;50.968;5.366;2022-07-06T11:27:16;2.35;;;1.40;;
26622;SDS011;14254;50.968;5.366;2022-07-06T11:29:43;4.32;;;1.67;;
26622;SDS011;14254;50.968;5.366;2022-07-06T11:32:10;3.97;;;1.80;;
26622;SDS011;14254;50.968;5.366;2022-07-06T11:34:43;5.53;;;1.50;;
26622;SDS011;14254;50.968;5.366;2022-07-06T11:37:10;4.05;;;1.60;;
26622;SDS011;14254;50.968;5.366;2022-07-06T11:39:38;6.55;;;2.05;;
26622;SDS011;14254;50.968;5.366;2022-07-06T11:42:05;6.65;;;1.40;;
26622;SDS011;14254;50.968;5.366;2022-07-06T11:44:36;5.57;;;1.40;;
26622;SDS011;14254;50.968;5.366;2022-07-06T11:47:02;3.30;;;1.83;;
26622;SDS011;14254;50.968;5.366;2022-07-06T11:49:30;3.45;;;1.58;;
26622;SDS011;14254;50.968;5.366;2022-07-06T11:51:56;8.35;;;1.85;;
26622;SDS011;14254;50.968;5.366;2022-07-06T11:54:23;4.75;;;2.05;;
26622;SDS011;14254;50.968;5.366;2022-07-06T11:56:53;7.50;;;1.48;;
26622;SDS011;14254;50.968;5.366;2022-07-06T11:59:22;5.50;;;1.75;;
26622;SDS011;14254;50.968;5.366;2022-07-06T12:01:49;5.47;;;1.45;;
26622;SDS011;14254;50.968;5.366;2022-07-06T12:04:15;4.65;;;1.80;;
26622;SDS011;14254;50.968;5.366;2022-07-06T12:06:40;5.95;;;1.58;;
26622;SDS011;14254;50.968;5.366;2022-07-06T12:09:08;4.07;;;1.55;;
26622;SDS011;14254;50.968;5.366;2022-07-06T12:11:35;4.43;;;1.45;;
26622;SDS011;14254;50.968;5.366;2022-07-06T12:14:02;4.97;;;2.38;;
26622;SDS011;14254;50.968;5.366;2022-07-06T12:16:38;4.78;;;1.92;;
26622;SDS011;14254;50.968;5.366;2022-07-06T12:19:04;9.77;;;2.05;;
26622;SDS011;14254;50.968;5.366;2022-07-06T12:21:31;6.15;;;1.90;;
26622;SDS011;14254;50.968;5.366;2022-07-06T12:23:58;12.32;;;2.00;;
26622;SDS011;14254;50.968;5.366;2022-07-06T12:26:24;30.13;;;4.65;;
26622;SDS011;14254;50.968;5.366;2022-07-06T12:29:04;5.63;;;1.73;;
26622;SDS011;14254;50.968;5.366;2022-07-06T12:31:35;3.17;;;1.50;;
26622;SDS011;14254;50.968;5.366;2022-07-06T12:34:02;5.93;;;1.98;;
26622;SDS011;14254;50.968;5.366;2022-07-06T12:36:29;4.13;;;1.98;;
26622;SDS011;14254;50.968;5.366;2022-07-06T12:38:55;10.70;;;2.30;;
26622;SDS011;14254;50.968;5.366;2022-07-06T12:41:31;6.72;;;1.73;;
26622;SDS011;14254;50.968;5.366;2022-07-06T12:46:31;4.07;;;1.50;;
26622;SDS011;14254;50.968;5.366;2022-07-06T12:48:59;7.57;;;1.75;;
26622;SDS011;14254;50.968;5.366;2022-07-06T12:51:28;5.60;;;1.90;;
26622;SDS011;14254;50.968;5.366;2022-07-06T12:54:11;5.43;;;1.80;;
26622;SDS011;14254;50.968;5.366;2022-07-06T12:56:55;3.58;;;1.83;;
26622;SDS011;14254;50.968;5.366;2022-07-06T12:59:22;5.55;;;1.95;;
26622;SDS011;14254;50.968;5.366;2022-07-06T13:01:48;6.47;;;2.30;;
26622;SDS011;14254;50.968;5.366;2022-07-06T13:04:15;5.00;;;1.80;;
26622;SDS011;14254;50.968;5.366;2022-07-06T13:06:41;6.13;;;1.48;;
26622;SDS011;14254;50.968;5.366;2022-07-06T13:09:07;5.80;;;1.58;;
26622;SDS011;14254;50.968;5.366;2022-07-06T13:11:33;5.30;;;1.70;;
26622;SDS011;14254;50.968;5.366;2022-07-06T13:13:59;6.60;;;2.35;;
26622;SDS011;14254;50.968;5.366;2022-07-06T13:16:25;6.85;;;1.70;;
26622;SDS011;14254;50.968;5.366;2022-07-06T13:18:55;5.17;;;1.80;;
26622;SDS011;14254;50.968;5.366;2022-07-06T13:21:21;2.97;;;1.60;;
26622;SDS011;14254;50.968;5.366;2022-07-06T13:23:47;2.38;;;1.50;;
26622;SDS011;14254;50.968;5.366;2022-07-06T13:26:13;7.78;;;1.90;;
26622;SDS011;14254;50.968;5.366;2022-07-06T13:28:38;5.57;;;1.52;;
26622;SDS011;14254;50.968;5.366;2022-07-06T13:31:04;11.30;;;2.00;;
26622;SDS011;14254;50.968;5.366;2022-07-06T13:33:30;8.68;;;1.73;;
26622;SDS011;14254;50.968;5.366;2022-07-06T13:35:56;5.95;;;1.70;;
26622;SDS011;14254;50.968;5.366;2022-07-06T13:38:22;7.40;;;1.75;;
26622;SDS011;14254;50.968;5.366;2022-07-06T13:40:47;7.90;;;1.80;;
26622;SDS011;14254;50.968;5.366;2022-07-06T13:43:13;3.75;;;1.50;;
26622;SDS011;14254;50.968;5.366;2022-07-06T13:45:39;3.38;;;1.77;;
26622;SDS011;14254;50.968;5.366;2022-07-06T13:48:04;4.35;;;1.60;;
26622;SDS011;14254;50.968;5.366;2022-07-06T13:50:30;6.18;;;1.83;;
26622;SDS011;14254;50.968;5.366;2022-07-06T13:52:59;7.35;;;2.05;;
26622;SDS011;14254;50.968;5.366;2022-07-06T13:55:25;4.63;;;1.88;;
26622;SDS011;14254;50.968;5.366;2022-07-06T13:57:51;3.20;;;1.90;;
26622;SDS011;14254;50.968;5.366;2022-07-06T14:00:17;5.28;;;1.67;;
26622;SDS011;14254;50.968;5.366;2022-07-06T14:02:46;7.57;;;1.73;;
26622;SDS011;14254;50.968;5.366;2022-07-06T14:05:12;4.45;;;1.70;;
26622;SDS011;14254;50.968;5.366;2022-07-06T14:07:38;3.08;;;1.50;;
26622;SDS011;14254;50.968;5.366;2022-07-06T14:10:04;73.65;;;9.75;;
26622;SDS011;14254;50.968;5.366;2022-07-06T14:12:30;6.43;;;2.00;;
26622;SDS011;14254;50.968;5.366;2022-07-06T14:14:55;5.45;;;1.60;;
26622;SDS011;14254;50.968;5.366;2022-07-06T14:17:21;6.18;;;2.17;;
26622;SDS011;14254;50.968;5.366;2022-07-06T14:19:48;13.95;;;1.70;;
26622;SDS011;14254;50.968;5.366;2022-07-06T14:22:14;6.22;;;1.80;;
26622;SDS011;14254;50.968;5.366;2022-07-06T14:24:40;6.63;;;1.85;;
26622;SDS011;14254;50.968;5.366;2022-07-06T14:27:06;8.90;;;2.60;;
26622;SDS011;14254;50.968;5.366;2022-07-06T14:29:32;5.22;;;2.13;;
26622;SDS011;14254;50.968;5.366;2022-07-06T14:31:57;116.45;;;16.48;;
26622;SDS011;14254;50.968;5.366;2022-07-06T14:34:23;8.50;;;2.00;;
26622;SDS011;14254;50.968;5.366;2022-07-06T14:36:49;3.55;;;1.77;;
26622;SDS011;14254;50.968;5.366;2022-07-06T14:39:15;5.65;;;1.60;;
26622;SDS011;14254;50.968;5.366;2022-07-06T14:41:41;6.70;;;1.80;;
26622;SDS011;14254;50.968;5.366;2022-07-06T14:44:07;6.22;;;1.90;;
26622;SDS011;14254;50.968;5.366;2022-07-06T14:46:33;10.45;;;2.53;;
26622;SDS011;14254;50.968;5.366;2022-07-06T14:48:59;7.85;;;2.20;;
26622;SDS011;14254;50.968;5.366;2022-07-06T14:51:25;4.13;;;1.90;;
26622;SDS011;14254;50.968;5.366;2022-07-06T14:53:51;5.22;;;1.60;;